Time;durP1;ratioP1;P1;durP2;ratioP2;P2;SDS_P1;SDS_P2;PMS_P1;PMS_P2;Temp;Humidity;BMP_temperature;BMP_pressure;BME280_temperature;BME280_humidity;BME280_pressure;Samples;Min_cycle;Max_cycle;Signal;HPM_P1;HPM_P2
2021/12/08 00:04:07;;;;;;;6.47;3.73;;;5.60;98.70;;;;;;10469106;28;20255;-79
2021/12/08 00:09:26;;;;;;;3.47;3.17;;;5.60;97.70;;;;;;10458112;28;20227;-81
2021/12/08 00:14:29;;;;;;;4.57;3.90;;;5.60;99.00;;;;;;10470598;28;20595;-80
2021/12/08 00:19:31;;;;;;;4.30;3.77;;;5.60;99.10;;;;;;10464611;28;20225;-81
2021/12/08 00:24:33;;;;;;;6.07;4.50;;;5.70;99.90;;;;;;10463045;28;20213;-80
2021/12/08 00:29:37;;;;;;;4.10;3.57;;;5.80;99.90;;;;;;10466694;28;20221;-80
2021/12/08 00:34:39;;;;;;;3.30;3.00;;;6.00;99.30;;;;;;10465867;28;20208;-80
2021/12/08 00:39:41;;;;;;;3.80;2.70;;;6.00;99.00;;;;;;10445853;28;20232;-79
2021/12/08 00:44:45;;;;;;;3.17;2.97;;;6.10;94.20;;;;;;10476796;28;20244;-80
2021/12/08 00:49:47;;;;;;;2.60;2.40;;;6.10;96.70;;;;;;10466443;28;20228;-78
2021/12/08 00:54:49;;;;;;;3.20;3.00;;;6.00;96.90;;;;;;10453183;28;20270;-79
2021/12/08 00:59:52;;;;;;;2.97;2.77;;;5.80;99.90;;;;;;10456136;28;20224;-79
2021/12/08 01:04:55;;;;;;;3.17;2.77;;;5.70;99.90;;;;;;10449592;28;20205;-80
2021/12/08 01:09:57;;;;;;;3.57;3.27;;;5.60;99.90;;;;;;10495254;28;20599;-80
2021/12/08 01:15:00;;;;;;;3.87;3.57;;;5.60;99.90;;;;;;10471043;28;20251;-79
2021/12/08 01:20:02;;;;;;;3.70;3.40;;;5.60;99.90;;;;;;10477880;28;20680;-80
2021/12/08 01:25:06;;;;;;;5.00;3.50;;;5.60;99.90;;;;;;10463401;28;20631;-79
2021/12/08 01:30:11;;;;;;;6.67;3.30;;;5.40;99.90;;;;;;10485881;28;20784;-79
2021/12/08 01:35:13;;;;;;;3.93;3.73;;;5.40;99.90;;;;;;10468282;28;20207;-79
2021/12/08 01:40:17;;;;;;;4.63;4.13;;;5.40;99.90;;;;;;10460047;28;20307;-80
2021/12/08 01:50:47;;;;;;;4.37;4.07;;;5.30;99.90;;;;;;10474718;28;20220;-81
2021/12/08 01:55:50;;;;;;;4.67;4.37;;;5.20;99.90;;;;;;10444531;28;20215;-81
2021/12/08 02:00:55;;;;;;;4.43;4.10;;;5.20;99.90;;;;;;10478328;28;20228;-81
2021/12/08 02:05:58;;;;;;;4.50;4.10;;;5.20;99.90;;;;;;10476277;28;20201;-81
2021/12/08 02:11:02;;;;;;;4.20;3.90;;;5.30;99.90;;;;;;10476554;28;20224;-81
2021/12/08 02:16:08;;;;;;;5.13;4.63;;;5.30;99.90;;;;;;10512454;28;20212;-81
2021/12/08 02:21:24;;;;;;;3.97;3.77;;;5.30;99.90;;;;;;10471052;28;20235;-80
2021/12/08 02:26:26;;;;;;;4.60;4.10;;;5.30;99.90;;;;;;10481900;28;20226;-80
2021/12/08 02:31:35;;;;;;;3.67;3.47;;;5.30;99.90;;;;;;10482110;28;20267;-80
2021/12/08 02:47:30;;;;;;;4.03;3.73;;;5.30;99.90;;;;;;10469689;28;20205;-78
2021/12/08 02:52:33;;;;;;;4.73;3.80;;;5.30;99.90;;;;;;10477433;28;20311;-78
2021/12/08 02:57:36;;;;;;;4.53;4.23;;;5.40;99.90;;;;;;10480403;28;20220;-78
2021/12/08 03:02:38;;;;;;;4.87;4.47;;;5.40;99.90;;;;;;10477051;28;20244;-78
2021/12/08 03:07:41;;;;;;;4.37;4.17;;;5.40;99.90;;;;;;10461516;28;20684;-78
2021/12/08 03:12:43;;;;;;;4.33;4.03;;;5.40;99.90;;;;;;10502713;28;20231;-78
2021/12/08 03:17:46;;;;;;;4.13;3.90;;;5.40;99.90;;;;;;10494569;28;20200;-78
2021/12/08 03:22:52;;;;;;;3.60;3.40;;;5.50;99.90;;;;;;10444037;28;20246;-78
2021/12/08 03:28:09;;;;;;;3.80;3.60;;;5.50;99.90;;;;;;10459850;28;20201;-78
2021/12/08 03:33:13;;;;;;;3.93;3.67;;;5.50;99.90;;;;;;10483749;28;20277;-78
2021/12/08 03:38:18;;;;;;;4.20;3.93;;;5.60;99.90;;;;;;10473756;28;20255;-78
2021/12/08 03:43:20;;;;;;;4.30;4.00;;;5.60;99.90;;;;;;10437926;28;20263;-78
2021/12/08 03:48:27;;;;;;;4.83;4.47;;;5.50;99.90;;;;;;10466377;28;20205;-78
2021/12/08 03:53:30;;;;;;;6.53;4.90;;;5.60;99.90;;;;;;10487819;28;20244;-78
2021/12/08 03:58:32;;;;;;;5.80;5.37;;;5.60;99.90;;;;;;10481917;28;20300;-79
2021/12/08 04:03:36;;;;;;;5.73;5.33;;;5.70;99.90;;;;;;10500779;28;20193;-79
2021/12/08 04:08:43;;;;;;;5.60;5.20;;;5.70;99.90;;;;;;10488402;28;20308;-80
2021/12/08 04:13:49;;;;;;;6.07;5.47;;;5.80;99.90;;;;;;10514047;28;20575;-78
2021/12/08 04:18:52;;;;;;;6.47;5.93;;;5.80;99.90;;;;;;10500071;28;20582;-78
2021/12/08 04:23:55;;;;;;;6.60;6.10;;;5.80;99.90;;;;;;10465318;28;20672;-78
2021/12/08 04:28:58;;;;;;;5.80;5.40;;;5.80;99.90;;;;;;10469514;28;20220;-79
2021/12/08 04:34:03;;;;;;;6.90;6.40;;;5.80;99.90;;;;;;10500585;28;20193;-78
2021/12/08 04:39:11;;;;;;;6.47;5.87;;;5.80;99.90;;;;;;10496947;28;20225;-79
2021/12/08 04:44:24;;;;;;;7.13;6.60;;;5.90;99.90;;;;;;10473831;28;20208;-79
2021/12/08 04:49:53;;;;;;;7.90;7.20;;;5.90;99.90;;;;;;10474118;28;20307;-79
2021/12/08 05:00:45;;;;;;;9.80;8.03;;;5.90;99.90;;;;;;10427454;28;20232;-78
2021/12/08 05:06:17;;;;;;;8.07;7.37;;;5.90;99.90;;;;;;10498420;28;20204;-79
2021/12/08 05:11:23;;;;;;;8.77;8.10;;;5.90;99.90;;;;;;10499184;28;20239;-80
2021/12/08 05:16:28;;;;;;;7.00;6.50;;;5.90;99.90;;;;;;10460604;28;20353;-78
2021/12/08 05:21:35;;;;;;;7.87;7.27;;;5.90;99.90;;;;;;10478800;28;20204;-78
2021/12/08 05:26:43;;;;;;;9.67;7.90;;;5.90;99.90;;;;;;10439208;28;20295;-79
2021/12/08 05:31:45;;;;;;;8.50;7.90;;;5.90;99.90;;;;;;10474757;28;20244;-78
2021/12/08 05:36:48;;;;;;;7.93;7.23;;;6.00;99.90;;;;;;10474280;28;20197;-78
2021/12/08 05:41:56;;;;;;;9.50;8.80;;;6.00;99.90;;;;;;10456094;28;20294;-78
2021/12/08 05:47:01;;;;;;;8.67;7.93;;;6.00;99.90;;;;;;10439907;28;20204;-78
2021/12/08 05:52:04;;;;;;;9.43;8.73;;;6.10;99.90;;;;;;10440580;28;20668;-79
2021/12/08 05:57:11;;;;;;;9.23;8.63;;;6.10;99.90;;;;;;10446591;28;20234;-79
2021/12/08 06:02:16;;;;;;;8.47;7.60;;;6.10;99.90;;;;;;10479833;28;20223;-79
2021/12/08 06:07:21;;;;;;;8.90;8.20;;;6.10;99.90;;;;;;10479122;28;20230;-79
2021/12/08 06:12:26;;;;;;;9.80;8.80;;;6.10;99.90;;;;;;10462141;28;20231;-78
2021/12/08 06:17:30;;;;;;;9.00;8.40;;;6.20;99.90;;;;;;10478562;28;20197;-79
2021/12/08 06:22:32;;;;;;;9.00;8.30;;;6.20;99.90;;;;;;10496443;28;20240;-78
2021/12/08 06:27:36;;;;;;;9.40;8.70;;;6.30;99.90;;;;;;10478756;28;20597;-78
2021/12/08 06:32:39;;;;;;;9.97;9.10;;;6.30;99.90;;;;;;10508681;28;20274;-79
2021/12/08 06:37:44;;;;;;;9.70;8.93;;;6.30;99.90;;;;;;10470070;28;20204;-79
2021/12/08 06:42:54;;;;;;;10.37;9.57;;;6.30;99.90;;;;;;10469113;28;20236;-79
2021/12/08 06:47:58;;;;;;;8.87;8.17;;;6.30;99.90;;;;;;10469784;28;20208;-79
2021/12/08 06:53:01;;;;;;;10.57;9.77;;;6.30;99.90;;;;;;10485519;28;20232;-79
2021/12/08 06:58:07;;;;;;;9.90;9.10;;;6.40;99.90;;;;;;10485989;28;20246;-78
2021/12/08 07:03:30;;;;;;;8.30;7.70;;;6.40;99.90;;;;;;10482142;28;20256;-79
2021/12/08 07:08:35;;;;;;;8.77;8.07;;;6.50;99.90;;;;;;10499065;28;20201;-79
2021/12/08 07:13:39;;;;;;;7.20;6.70;;;6.50;99.90;;;;;;10511024;28;20227;-78
2021/12/08 07:18:52;;;;;;;6.37;5.87;;;6.40;99.90;;;;;;10502481;28;20737;-78
2021/12/08 07:23:59;;;;;;;6.83;6.13;;;6.40;99.90;;;;;;10510087;28;20728;-78
2021/12/08 07:29:04;;;;;;;6.67;6.17;;;6.30;99.90;;;;;;10495431;28;20225;-79
2021/12/08 07:34:09;;;;;;;6.97;6.37;;;6.30;99.90;;;;;;10491889;28;20234;-79
2021/12/08 07:39:16;;;;;;;6.50;6.00;;;6.20;99.90;;;;;;10470187;28;20236;-79
2021/12/08 07:44:22;;;;;;;6.40;5.90;;;6.20;99.90;;;;;;10502629;28;20247;-79
2021/12/08 07:49:27;;;;;;;6.43;5.97;;;6.20;99.90;;;;;;10469272;28;20221;-79
2021/12/08 07:54:31;;;;;;;6.03;5.63;;;6.30;99.90;;;;;;10451872;28;20282;-79
2021/12/08 07:59:37;;;;;;;4.70;4.40;;;6.40;99.90;;;;;;10468925;28;20214;-79
2021/12/08 08:04:43;;;;;;;5.03;4.63;;;6.40;99.90;;;;;;10452428;28;20218;-79
2021/12/08 08:09:47;;;;;;;6.07;5.67;;;6.50;99.90;;;;;;10465000;28;20240;-79
2021/12/08 08:14:56;;;;;;;6.00;5.50;;;6.50;99.90;;;;;;10464322;28;20255;-79
2021/12/08 08:20:06;;;;;;;5.33;5.00;;;6.50;99.90;;;;;;10483068;28;20212;-79
2021/12/08 08:25:11;;;;;;;6.10;5.60;;;6.40;99.90;;;;;;10483689;28;20256;-79
2021/12/08 08:30:21;;;;;;;5.00;4.60;;;6.50;99.90;;;;;;10462794;28;20212;-79
2021/12/08 08:35:29;;;;;;;6.07;5.67;;;6.60;99.90;;;;;;10462613;28;20224;-79
2021/12/08 08:40:36;;;;;;;5.73;5.27;;;6.60;99.90;;;;;;10493686;22;20229;-78
2021/12/08 08:45:53;;;;;;;6.80;6.33;;;6.60;99.90;;;;;;10468052;28;20481;-78
2021/12/08 08:51:05;;;;;;;6.07;5.67;;;6.60;99.90;;;;;;10461303;28;20216;-78
2021/12/08 08:56:13;;;;;;;7.13;6.43;;;6.70;99.90;;;;;;10462358;28;20192;-78
2021/12/08 09:01:20;;;;;;;8.67;7.97;;;6.70;99.90;;;;;;10473697;28;20255;-77
2021/12/08 09:06:26;;;;;;;10.80;8.00;;;6.80;99.90;;;;;;10446318;28;20264;-78
2021/12/08 09:11:31;;;;;;;9.03;7.93;;;6.90;99.90;;;;;;10455959;28;20712;-78
2021/12/08 09:16:39;;;;;;;7.73;7.13;;;7.00;99.90;;;;;;10470708;28;20590;-77
2021/12/08 09:21:49;;;;;;;8.20;7.50;;;7.10;99.90;;;;;;10477269;28;20760;-77
2021/12/08 09:26:55;;;;;;;7.60;6.87;;;7.10;99.90;;;;;;10460375;28;20624;-78
2021/12/08 09:32:05;;;;;;;8.50;7.63;;;7.10;99.90;;;;;;10464966;28;20256;-77
2021/12/08 09:37:11;;;;;;;10.70;9.63;;;7.10;99.90;;;;;;10462472;28;20226;-78
2021/12/08 09:42:16;;;;;;;9.80;8.50;;;7.10;99.90;;;;;;10488275;28;20227;-78
2021/12/08 09:47:20;;;;;;;8.70;7.83;;;7.20;99.90;;;;;;10440935;28;20303;-77
2021/12/08 09:52:23;;;;;;;8.00;7.30;;;7.20;99.90;;;;;;10476852;28;20240;-78
2021/12/08 09:57:26;;;;;;;8.80;7.90;;;7.20;99.90;;;;;;10468890;28;20646;-78
2021/12/08 10:02:33;;;;;;;8.10;7.50;;;7.20;99.90;;;;;;10463923;28;20219;-78
2021/12/08 10:07:37;;;;;;;8.60;7.90;;;7.20;99.90;;;;;;10478952;28;20205;-78
2021/12/08 10:12:39;;;;;;;8.87;8.20;;;7.20;99.90;;;;;;10499967;28;20431;-78
2021/12/08 10:17:43;;;;;;;11.27;10.37;;;7.20;99.90;;;;;;10461147;28;20232;-78
2021/12/08 10:22:47;;;;;;;10.57;9.40;;;7.30;99.90;;;;;;10474761;28;20297;-78
2021/12/08 10:28:14;;;;;;;12.10;11.00;;;7.40;99.90;;;;;;10483312;28;20193;-78
2021/12/08 10:33:47;;;;;;;12.63;10.97;;;7.40;99.90;;;;;;10481077;28;20256;-78
2021/12/08 10:38:49;;;;;;;7.27;6.67;;;7.50;99.90;;;;;;10451364;28;20201;-78
2021/12/08 10:43:59;;;;;;;6.50;6.00;;;7.50;99.90;;;;;;10468216;28;20646;-78
2021/12/08 10:49:21;;;;;;;7.23;6.63;;;7.50;99.90;;;;;;10473578;28;20229;-78
2021/12/08 10:54:27;;;;;;;7.77;7.23;;;7.60;99.90;;;;;;10450266;28;20220;-77
2021/12/08 11:00:00;;;;;;;7.37;6.87;;;7.60;99.90;;;;;;10481978;28;20206;-78
2021/12/08 11:05:05;;;;;;;6.10;5.70;;;7.60;99.90;;;;;;10475154;28;20642;-78
2021/12/08 11:10:22;;;;;;;5.97;5.60;;;7.60;99.90;;;;;;10469635;28;20220;-78
2021/12/08 11:15:33;;;;;;;6.63;6.17;;;7.60;99.90;;;;;;10479157;28;20197;-78
2021/12/08 11:20:42;;;;;;;6.20;5.80;;;7.70;99.90;;;;;;10465050;28;20821;-78
2021/12/08 11:25:47;;;;;;;6.70;6.20;;;7.70;99.90;;;;;;10466376;28;20193;-79
2021/12/08 11:30:52;;;;;;;7.77;7.03;;;7.70;99.90;;;;;;10483545;28;20333;-78
2021/12/08 11:36:14;;;;;;;7.47;6.97;;;7.70;99.90;;;;;;10453165;28;20661;-79
2021/12/08 11:41:26;;;;;;;6.93;6.43;;;7.60;99.90;;;;;;10429986;28;20262;-78
2021/12/08 11:46:33;;;;;;;7.37;6.77;;;7.60;99.90;;;;;;10465494;28;20204;-79
2021/12/08 11:51:57;;;;;;;14.93;12.60;;;7.60;99.90;;;;;;10458899;28;20743;-78
2021/12/08 11:57:17;;;;;;;12.90;11.47;;;7.70;99.90;;;;;;10467325;28;20239;-78
2021/12/08 12:02:21;;;;;;;7.57;6.77;;;7.70;99.90;;;;;;10485359;28;20219;-78
2021/12/08 12:07:25;;;;;;;6.93;6.43;;;7.80;99.90;;;;;;10476635;28;20196;-78
2021/12/08 12:12:27;;;;;;;6.30;5.80;;;7.80;99.90;;;;;;10480598;28;20228;-77
2021/12/08 12:17:30;;;;;;;6.93;6.33;;;7.80;99.90;;;;;;10483662;28;20295;-78
2021/12/08 12:23:00;;;;;;;7.50;6.80;;;7.90;99.90;;;;;;10459831;28;20220;-78
2021/12/08 12:28:37;;;;;;;8.47;7.70;;;7.90;99.90;;;;;;10501310;28;20593;-78
2021/12/08 12:33:43;;;;;;;6.43;6.00;;;7.90;99.90;;;;;;10464042;28;20593;-78
2021/12/08 12:38:47;;;;;;;8.50;6.60;;;8.00;99.90;;;;;;10491081;28;20198;-78
2021/12/08 12:43:50;;;;;;;7.60;7.00;;;8.00;99.90;;;;;;10486481;28;20224;-78
2021/12/08 12:48:52;;;;;;;7.00;6.40;;;8.00;99.90;;;;;;10461539;28;20211;-78
2021/12/08 12:53:56;;;;;;;8.20;7.50;;;8.10;99.90;;;;;;10483002;28;20220;-79
2021/12/08 12:59:10;;;;;;;8.57;7.93;;;8.10;99.90;;;;;;10471392;28;20252;-78
2021/12/08 13:04:20;;;;;;;9.10;8.37;;;8.10;99.90;;;;;;10464669;28;20284;-78
2021/12/08 13:09:47;;;;;;;9.57;8.80;;;8.10;99.90;;;;;;10476091;28;20224;-79
2021/12/08 13:15:06;;;;;;;8.13;7.53;;;8.10;99.90;;;;;;10475605;28;20307;-78
2021/12/08 13:20:11;;;;;;;9.70;8.80;;;8.00;99.90;;;;;;10475521;28;20299;-78
2021/12/08 13:25:46;;;;;;;9.50;8.77;;;8.00;99.90;;;;;;10494079;28;20208;-78
2021/12/08 13:30:52;;;;;;;8.73;8.13;;;8.00;99.90;;;;;;10464743;28;20282;-78
2021/12/08 13:35:55;;;;;;;7.20;6.70;;;7.90;99.90;;;;;;10482911;28;20287;-78
2021/12/08 13:40:59;;;;;;;8.43;7.60;;;8.00;99.90;;;;;;10471947;28;20743;-78
2021/12/08 13:46:01;;;;;;;7.67;7.03;;;8.00;99.90;;;;;;10481752;28;20200;-78
2021/12/08 13:51:22;;;;;;;8.47;7.87;;;7.90;99.90;;;;;;10481000;28;20221;-78
2021/12/08 13:56:40;;;;;;;19.87;18.27;;;7.80;99.90;;;;;;10480628;28;20206;-78
2021/12/08 14:01:43;;;;;;;9.60;8.80;;;7.90;99.90;;;;;;10491370;28;20641;-78
2021/12/08 14:06:45;;;;;;;9.70;8.80;;;7.80;99.90;;;;;;10479706;28;20228;-78
2021/12/08 14:11:51;;;;;;;10.00;9.17;;;7.80;99.90;;;;;;10479459;28;20290;-78
2021/12/08 14:16:53;;;;;;;10.50;8.50;;;7.70;99.90;;;;;;10476995;28;20197;-78
2021/12/08 14:22:00;;;;;;;8.63;7.90;;;7.70;99.90;;;;;;10471282;28;20271;-78
2021/12/08 14:27:04;;;;;;;10.23;9.33;;;7.60;99.90;;;;;;10461497;28;20204;-78
2021/12/08 14:32:06;;;;;;;10.00;9.10;;;7.70;99.90;;;;;;10461064;28;20672;-78
2021/12/08 14:37:11;;;;;;;21.53;19.70;;;7.70;99.90;;;;;;10495647;28;20287;-78
2021/12/08 14:42:16;;;;;;;14.30;12.93;;;7.70;99.90;;;;;;10489869;28;20220;-78
2021/12/08 14:47:23;;;;;;;9.60;8.80;;;7.70;99.90;;;;;;10476769;28;20201;-78
2021/12/08 14:52:26;;;;;;;10.03;9.07;;;7.70;99.90;;;;;;10458144;28;20221;-78
2021/12/08 14:57:32;;;;;;;9.53;8.20;;;7.60;99.90;;;;;;10485050;28;20201;-78
2021/12/08 15:02:36;;;;;;;9.67;8.97;;;7.50;99.90;;;;;;10457805;28;20724;-78
2021/12/08 15:07:40;;;;;;;11.47;10.40;;;7.40;99.90;;;;;;10493218;28;20283;-78
2021/12/08 15:12:46;;;;;;;8.70;8.10;;;7.40;99.90;;;;;;10459393;28;20750;-79
2021/12/08 15:17:58;;;;;;;11.63;9.57;;;7.40;99.90;;;;;;10487321;28;20250;-78
2021/12/08 15:23:02;;;;;;;10.10;9.20;;;7.40;99.90;;;;;;10476177;28;20627;-78
2021/12/08 15:28:09;;;;;;;10.73;9.83;;;7.40;99.90;;;;;;10454553;28;20204;-78
2021/12/08 15:33:13;;;;;;;10.27;9.37;;;7.40;99.90;;;;;;10459818;28;20270;-78
2021/12/08 15:38:18;;;;;;;9.80;8.80;;;7.40;99.90;;;;;;10502515;28;20260;-78
2021/12/08 15:43:23;;;;;;;8.70;7.90;;;7.30;99.90;;;;;;10468205;28;20225;-78
2021/12/08 15:48:27;;;;;;;9.87;8.97;;;7.30;99.90;;;;;;10430802;28;20201;-78
2021/12/08 15:53:31;;;;;;;9.97;8.70;;;7.30;99.90;;;;;;10464838;28;20252;-78
2021/12/08 15:58:40;;;;;;;9.93;9.13;;;7.20;99.90;;;;;;10497312;28;20209;-78
2021/12/08 16:03:45;;;;;;;10.27;9.43;;;7.20;99.90;;;;;;10450673;28;20220;-78
2021/12/08 16:08:48;;;;;;;11.70;10.70;;;7.20;99.90;;;;;;10469361;28;20209;-78
2021/12/08 16:13:52;;;;;;;12.50;11.40;;;7.10;99.90;;;;;;10446346;28;20235;-78
2021/12/08 16:19:08;;;;;;;12.30;10.90;;;7.10;99.90;;;;;;10476277;28;20209;-78
2021/12/08 16:24:11;;;;;;;11.90;10.80;;;7.10;99.90;;;;;;10468887;28;20642;-78
2021/12/08 16:29:14;;;;;;;16.37;14.80;;;7.20;99.90;;;;;;10474793;28;20221;-78
2021/12/08 16:46:01;;;;;;;12.53;11.30;;;7.20;99.90;;;;;;10473633;28;20242;-78
2021/12/08 16:51:03;;;;;;;10.33;9.33;;;7.20;99.90;;;;;;10466167;28;20594;-79
2021/12/08 16:56:06;;;;;;;12.03;10.83;;;7.20;99.90;;;;;;10487017;28;20228;-79
2021/12/08 17:01:09;;;;;;;12.03;11.00;;;7.20;99.90;;;;;;10471154;28;20244;-79
2021/12/08 17:06:12;;;;;;;10.63;9.63;;;7.20;99.90;;;;;;10434658;28;20610;-79
2021/12/08 17:11:14;;;;;;;12.57;11.40;;;7.10;99.90;;;;;;10467281;28;20307;-79
2021/12/08 17:16:18;;;;;;;14.80;12.57;;;7.10;99.90;;;;;;10461566;28;20240;-79
2021/12/08 17:21:20;;;;;;;12.93;11.77;;;7.10;99.90;;;;;;10474808;28;20704;-78
2021/12/08 17:26:23;;;;;;;16.40;14.90;;;7.10;99.90;;;;;;10461757;28;20235;-79
2021/12/08 17:31:26;;;;;;;16.10;14.50;;;7.20;99.90;;;;;;10482251;28;20220;-79
2021/12/08 17:36:28;;;;;;;15.70;14.20;;;7.20;99.90;;;;;;10478508;28;20220;-80
2021/12/08 17:41:31;;;;;;;17.27;15.53;;;7.20;99.90;;;;;;10480368;28;20228;-80
2021/12/08 17:46:35;;;;;;;14.67;12.20;;;7.20;99.90;;;;;;10446569;28;20190;-80
2021/12/08 17:51:37;;;;;;;15.63;13.70;;;7.20;99.90;;;;;;10457413;28;20264;-80
2021/12/08 17:56:41;;;;;;;11.80;10.80;;;7.20;99.90;;;;;;10457843;28;20205;-80
2021/12/08 18:01:45;;;;;;;13.77;12.47;;;7.20;99.90;;;;;;10462333;28;20285;-80
2021/12/08 18:06:48;;;;;;;13.40;12.20;;;7.20;99.90;;;;;;10471782;28;20299;-80
2021/12/08 18:11:50;;;;;;;12.90;11.60;;;7.20;99.90;;;;;;10427804;28;20240;-80
2021/12/08 18:16:53;;;;;;;13.10;11.90;;;7.10;99.90;;;;;;10451445;28;20193;-80
2021/12/08 18:21:56;;;;;;;15.83;13.37;;;7.20;99.90;;;;;;10434373;28;20217;-80
2021/12/08 18:26:58;;;;;;;13.07;11.77;;;7.20;99.90;;;;;;10484925;28;20190;-80
2021/12/08 18:32:03;;;;;;;7.97;6.23;;;7.30;99.90;;;;;;10444359;28;20225;-80
2021/12/08 18:37:05;;;;;;;4.80;4.30;;;7.40;99.90;;;;;;10457276;28;20220;-80
2021/12/08 18:42:09;;;;;;;5.60;3.30;;;7.40;99.90;;;;;;10469588;28;20281;-80
2021/12/08 18:47:13;;;;;;;3.00;2.33;;;7.40;99.90;;;;;;10473358;28;20212;-80
2021/12/08 18:52:16;;;;;;;4.10;2.50;;;7.40;99.90;;;;;;10470872;28;20775;-80
2021/12/08 18:57:18;;;;;;;2.53;2.17;;;7.30;99.90;;;;;;10497481;28;20205;-80
2021/12/08 19:02:23;;;;;;;6.40;2.43;;;7.30;99.90;;;;;;10479675;28;20236;-80
2021/12/08 19:07:27;;;;;;;4.40;2.33;;;7.20;99.90;;;;;;10488089;28;20299;-80
2021/12/08 19:12:29;;;;;;;6.17;4.90;;;7.20;99.90;;;;;;10470503;28;20223;-80
2021/12/08 19:17:36;;;;;;;6.33;5.73;;;7.10;99.90;;;;;;10467296;28;20209;-81
2021/12/08 19:22:39;;;;;;;4.40;4.00;;;7.10;99.90;;;;;;10480586;28;20217;-81
2021/12/08 19:27:44;;;;;;;9.23;6.20;;;7.10;99.90;;;;;;10454657;28;20295;-80
2021/12/08 19:32:49;;;;;;;4.80;4.30;;;7.00;99.90;;;;;;10496110;28;20228;-79
2021/12/08 19:37:51;;;;;;;6.97;6.27;;;7.00;99.90;;;;;;10483934;28;20196;-80
2021/12/08 19:42:54;;;;;;;4.30;3.90;;;6.90;99.90;;;;;;10479386;28;20232;-80
2021/12/08 19:48:00;;;;;;;4.10;3.70;;;6.80;99.90;;;;;;10480496;28;20223;-80
2021/12/08 19:53:02;;;;;;;3.43;2.77;;;6.80;99.90;;;;;;10471526;28;20245;-80
2021/12/08 19:58:04;;;;;;;5.23;4.83;;;6.70;99.90;;;;;;10439386;28;20735;-80
2021/12/08 20:03:10;;;;;;;5.33;4.50;;;6.70;99.90;;;;;;10445002;28;20300;-80
2021/12/08 20:08:13;;;;;;;6.50;4.00;;;6.70;99.90;;;;;;10426665;28;20201;-80
2021/12/08 20:13:16;;;;;;;6.00;5.20;;;6.70;99.90;;;;;;10459624;28;20216;-80
2021/12/08 20:18:21;;;;;;;7.17;5.60;;;6.70;99.90;;;;;;10485169;28;20668;-81
2021/12/08 20:23:25;;;;;;;6.40;3.73;;;6.70;99.90;;;;;;10486344;28;20217;-80
2021/12/08 20:28:28;;;;;;;5.90;4.40;;;6.80;99.90;;;;;;10444132;28;20201;-80
2021/12/08 20:33:31;;;;;;;7.33;3.47;;;6.80;99.90;;;;;;10450282;28;20759;-80
2021/12/08 20:38:33;;;;;;;4.47;2.83;;;6.90;99.90;;;;;;10462503;28;20570;-80
2021/12/08 20:43:37;;;;;;;6.83;3.30;;;7.00;99.90;;;;;;10448781;22;20230;-84
2021/12/08 20:48:41;;;;;;;3.00;2.80;;;7.00;99.90;;;;;;10420745;28;20206;-84
2021/12/08 20:53:49;;;;;;;9.37;4.80;;;7.10;99.90;;;;;;10421722;28;20259;-84
2021/12/08 20:58:55;;;;;;;6.17;4.17;;;7.10;99.90;;;;;;10416266;28;20194;-84
2021/12/08 21:04:00;;;;;;;7.13;4.37;;;7.10;99.90;;;;;;10389542;28;20210;-84
2021/12/08 21:09:03;;;;;;;5.30;4.80;;;7.10;99.90;;;;;;10415689;28;20225;-84
2021/12/08 21:14:07;;;;;;;9.20;6.43;;;6.90;99.90;;;;;;10441672;28;20221;-84
2021/12/08 21:19:11;;;;;;;5.00;4.50;;;6.90;99.90;;;;;;10423554;28;20266;-84
2021/12/08 21:24:13;;;;;;;8.13;6.60;;;6.80;99.90;;;;;;10423049;28;20296;-85
2021/12/08 21:29:15;;;;;;;7.90;5.40;;;6.80;99.90;;;;;;10446364;28;20197;-84
2021/12/08 21:34:19;;;;;;;6.50;4.60;;;6.70;99.90;;;;;;10396263;28;20213;-84
2021/12/08 21:39:21;;;;;;;5.50;4.50;;;6.60;99.90;;;;;;10375677;28;20197;-84
2021/12/08 21:44:24;;;;;;;6.50;4.43;;;6.60;99.90;;;;;;10409477;28;20566;-84
2021/12/08 21:49:28;;;;;;;6.87;4.20;;;6.60;99.90;;;;;;10388920;28;20658;-85
2021/12/08 21:54:30;;;;;;;6.40;5.13;;;6.60;99.90;;;;;;10425848;28;20264;-84
2021/12/08 21:59:32;;;;;;;7.67;4.67;;;6.70;99.90;;;;;;10431068;28;20205;-84
2021/12/08 22:04:36;;;;;;;5.43;4.80;;;6.70;99.90;;;;;;10400656;28;20226;-84
2021/12/08 22:09:38;;;;;;;9.57;5.40;;;6.70;99.90;;;;;;10395086;28;20576;-83
2021/12/08 22:14:44;;;;;;;6.60;4.80;;;6.80;99.90;;;;;;10416591;28;20677;-84
2021/12/08 22:19:50;;;;;;;7.27;4.97;;;6.70;99.90;;;;;;10400698;28;20197;-86
2021/12/08 22:24:55;;;;;;;5.67;5.17;;;6.80;99.90;;;;;;10419729;28;20226;-83
2021/12/08 22:29:57;;;;;;;7.23;5.20;;;6.80;99.90;;;;;;10420458;28;20685;-84
2021/12/08 22:35:04;;;;;;;5.57;5.03;;;6.80;99.90;;;;;;10399455;28;20206;-83
2021/12/08 22:40:10;;;;;;;5.40;4.90;;;6.80;99.90;;;;;;10397823;28;20222;-83
2021/12/08 22:45:15;;;;;;;6.50;4.87;;;6.80;99.90;;;;;;10425885;28;20190;-83
2021/12/08 22:50:24;;;;;;;9.33;5.00;;;6.70;99.90;;;;;;10421391;28;20754;-83
2021/12/08 22:55:30;;;;;;;6.40;5.30;;;6.70;99.90;;;;;;10423567;28;20224;-84
2021/12/08 23:00:57;;;;;;;8.47;5.83;;;6.70;99.90;;;;;;10427960;28;20217;-85
2021/12/08 23:06:01;;;;;;;8.80;5.80;;;6.70;99.90;;;;;;10423661;28;20675;-83
2021/12/08 23:11:10;;;;;;;6.43;4.83;;;6.60;99.90;;;;;;10432498;28;20249;-84
2021/12/08 23:16:15;;;;;;;6.03;4.83;;;6.60;99.90;;;;;;10411008;28;20252;-84
2021/12/08 23:21:21;;;;;;;5.77;4.83;;;6.60;99.90;;;;;;10407659;28;20309;-84
2021/12/08 23:27:00;;;;;;;9.13;5.60;;;6.60;99.90;;;;;;10991709;22;20204;-85
2021/12/08 23:32:03;;;;;;;7.33;4.40;;;6.70;99.90;;;;;;10340953;28;20226;-83
2021/12/08 23:37:11;;;;;;;8.90;5.57;;;6.70;99.90;;;;;;10344832;28;20256;-84
2021/12/08 23:42:40;;;;;;;5.57;4.90;;;6.70;99.90;;;;;;10380025;28;20206;-84
2021/12/08 23:47:42;;;;;;;8.23;4.87;;;6.70;99.90;;;;;;10361632;28;20253;-84
2021/12/08 23:52:46;;;;;;;8.50;5.10;;;6.80;99.90;;;;;;10357439;28;20203;-84
2021/12/08 23:57:53;;;;;;;4.90;3.77;;;6.80;99.90;;;;;;10356054;28;20289;-83
